Terminal Aerodrome Forecast
Issued by NWS Quad Cities IA IL

Home | Current Version | Previous Version | Text Only | Print | Product List | Glossary On
Versions: 1 2 3 4 5 6 7 8 9 10 11 12 13 14 15 16 17 18 19 20 21 22 23 24 25 26 27 28 29 30 31 32 33
000
FTUS43 KDVN 030520
TAFDBQ
TAF
KDBQ 030520Z 0306/0406 24003KT P6SM SCT090
     FM031500 27010KT P6SM SCT200
     FM031900 27014G22KT P6SM BKN200
     FM040000 26013KT P6SM BKN100 PROB30 0400/0404 4SM SHRA BKN040=

USA.gov is the U.S. government's official web portal to all federal, state and local government web resources and services.